Time;durP1;ratioP1;P1;durP2;ratioP2;P2;SDS_P1;SDS_P2;PMS_P1;PMS_P2;Temp;Humidity;BMP_temperature;BMP_pressure;BME280_temperature;BME280_humidity;BME280_pressure;Samples;Min_cycle;Max_cycle;Signal;HPM_P1;HPM_P2
2023/01/19 00:01:21;;;;;;;11.63;8.23;;;2.70;99.90;;;;;;4991372;28;20266;-67
2023/01/19 00:03:47;;;;;;;18.40;10.73;;;2.70;99.90;;;;;;4973202;28;20181;-68
2023/01/19 00:06:13;;;;;;;14.50;10.47;;;2.70;99.90;;;;;;4974882;28;20668;-67
2023/01/19 00:08:39;;;;;;;19.87;10.63;;;2.70;99.90;;;;;;4979625;28;20199;-68
2023/01/19 00:11:05;;;;;;;15.17;9.07;;;2.60;99.90;;;;;;4977647;28;20262;-67
2023/01/19 00:13:31;;;;;;;12.53;7.47;;;2.50;99.90;;;;;;4979844;28;20212;-68
2023/01/19 00:15:56;;;;;;;15.73;8.83;;;2.60;99.90;;;;;;4981950;28;20262;-68
2023/01/19 00:18:22;;;;;;;13.20;8.47;;;2.50;99.90;;;;;;4994445;28;20220;-67
2023/01/19 00:20:48;;;;;;;10.43;8.63;;;2.60;99.90;;;;;;4990879;28;20237;-68
2023/01/19 00:23:14;;;;;;;16.93;9.67;;;2.60;99.90;;;;;;4981165;28;20196;-67
2023/01/19 00:25:42;;;;;;;13.57;8.70;;;2.60;99.90;;;;;;4976189;28;20180;-67
2023/01/19 00:28:09;;;;;;;13.77;9.10;;;2.60;99.90;;;;;;4984294;28;20188;-67
2023/01/19 00:30:35;;;;;;;10.10;8.93;;;2.60;99.90;;;;;;4977942;28;20216;-68
2023/01/19 00:33:00;;;;;;;15.27;10.77;;;2.60;99.90;;;;;;4988426;28;20230;-67
2023/01/19 00:35:26;;;;;;;11.57;8.90;;;2.80;99.90;;;;;;4982734;28;20204;-67
2023/01/19 00:37:52;;;;;;;11.97;8.83;;;2.60;99.90;;;;;;4975725;28;20200;-67
2023/01/19 00:40:17;;;;;;;13.90;8.10;;;2.40;99.90;;;;;;4993110;28;20220;-68
2023/01/19 00:42:43;;;;;;;14.57;9.43;;;2.50;99.90;;;;;;4989338;28;20879;-67
2023/01/19 00:45:10;;;;;;;11.83;7.57;;;2.60;99.90;;;;;;4979115;28;20281;-67
2023/01/19 00:47:38;;;;;;;16.53;9.30;;;2.50;99.90;;;;;;4977326;28;20189;-67
2023/01/19 00:50:04;;;;;;;11.40;9.40;;;2.70;99.90;;;;;;4975678;28;20191;-67
2023/01/19 00:52:30;;;;;;;13.80;9.60;;;2.70;99.90;;;;;;4976324;28;20200;-67
2023/01/19 00:54:56;;;;;;;8.97;7.77;;;2.60;99.90;;;;;;4985400;28;20197;-67
2023/01/19 00:57:22;;;;;;;15.37;9.40;;;2.50;99.90;;;;;;4991198;28;20750;-67
2023/01/19 00:59:48;;;;;;;16.17;7.97;;;2.50;99.90;;;;;;4984654;28;20185;-67
2023/01/19 01:02:14;;;;;;;16.57;9.67;;;2.50;99.90;;;;;;4977550;28;20199;-67
2023/01/19 01:04:39;;;;;;;13.80;7.10;;;2.40;99.90;;;;;;4978117;28;20193;-67
2023/01/19 01:07:06;;;;;;;14.87;9.33;;;2.50;99.90;;;;;;4976779;28;20634;-67
2023/01/19 01:09:31;;;;;;;21.40;8.13;;;2.30;99.90;;;;;;4994367;28;20192;-67
2023/01/19 01:11:57;;;;;;;16.97;8.60;;;2.30;99.90;;;;;;4990574;28;20568;-67
2023/01/19 01:14:23;;;;;;;15.50;10.03;;;2.40;99.90;;;;;;4974475;28;20184;-67
2023/01/19 01:16:49;;;;;;;13.37;8.00;;;2.40;99.90;;;;;;4980609;28;20225;-67
2023/01/19 01:19:15;;;;;;;20.30;9.07;;;2.30;99.90;;;;;;4976461;28;20185;-67
2023/01/19 01:21:41;;;;;;;14.00;8.57;;;2.40;99.90;;;;;;4977331;28;20188;-67
2023/01/19 01:24:08;;;;;;;14.43;8.17;;;2.30;99.90;;;;;;4987482;28;20192;-68
2023/01/19 01:26:33;;;;;;;11.23;8.07;;;2.30;99.90;;;;;;4981821;28;20697;-67
2023/01/19 01:28:59;;;;;;;16.43;10.40;;;2.30;99.90;;;;;;4972594;28;20272;-67
2023/01/19 01:31:25;;;;;;;10.30;7.63;;;2.30;99.90;;;;;;4976317;28;20189;-67
2023/01/19 01:33:51;;;;;;;9.60;7.60;;;2.40;99.90;;;;;;4984739;28;20184;-67
2023/01/19 01:36:17;;;;;;;8.90;7.33;;;2.40;99.90;;;;;;4980624;28;20227;-67
2023/01/19 01:38:43;;;;;;;13.17;9.30;;;2.30;99.90;;;;;;4976860;28;20552;-67
2023/01/19 01:41:10;;;;;;;12.70;9.17;;;2.40;99.90;;;;;;4988987;28;20201;-67
2023/01/19 01:43:41;;;;;;;18.00;8.00;;;2.40;99.90;;;;;;4975711;28;20192;-67
2023/01/19 01:46:07;;;;;;;14.93;9.57;;;2.40;99.90;;;;;;4982226;28;20560;-67
2023/01/19 01:48:34;;;;;;;14.97;9.80;;;2.30;99.90;;;;;;4992877;28;20188;-67
2023/01/19 01:51:24;;;;;;;13.20;7.53;;;2.30;99.90;;;;;;4991319;28;20624;-67
2023/01/19 01:54:07;;;;;;;8.70;7.67;;;2.30;99.90;;;;;;4977419;28;20196;-67
2023/01/19 01:56:48;;;;;;;11.07;7.70;;;2.10;99.90;;;;;;4978926;28;20568;-67
2023/01/19 01:59:37;;;;;;;15.53;9.73;;;2.20;99.90;;;;;;4979991;28;20182;-67
2023/01/19 02:05:06;;;;;;;14.07;9.23;;;2.30;99.90;;;;;;4975082;28;20206;-67
2023/01/19 02:13:16;;;;;;;12.10;8.97;;;2.10;99.90;;;;;;4976068;28;20197;-67
2023/01/19 02:15:41;;;;;;;12.07;8.23;;;2.20;99.90;;;;;;4978286;28;20246;-67
2023/01/19 02:18:07;;;;;;;12.97;8.60;;;2.30;99.90;;;;;;4982806;28;20588;-67
2023/01/19 02:20:36;;;;;;;15.43;10.27;;;2.30;99.90;;;;;;4979611;28;20231;-67
2023/01/19 02:23:06;;;;;;;16.60;7.70;;;2.20;99.90;;;;;;4980938;28;20184;-67
2023/01/19 02:25:32;;;;;;;14.97;9.27;;;2.20;99.90;;;;;;4981294;28;20184;-67
2023/01/19 02:27:59;;;;;;;17.13;10.87;;;2.20;99.90;;;;;;4987091;28;20192;-67
2023/01/19 02:30:25;;;;;;;13.90;7.63;;;2.30;99.90;;;;;;4970797;28;20494;-67
2023/01/19 02:32:51;;;;;;;11.87;7.80;;;2.40;99.90;;;;;;4984921;28;20244;-67
2023/01/19 02:35:17;;;;;;;12.73;9.23;;;2.50;99.90;;;;;;4975123;28;20200;-67
2023/01/19 02:37:43;;;;;;;15.17;9.10;;;2.60;99.90;;;;;;4978442;28;20216;-67
2023/01/19 02:40:13;;;;;;;12.60;7.47;;;2.50;99.90;;;;;;4979437;28;20200;-67
2023/01/19 02:42:51;;;;;;;13.50;9.30;;;2.50;99.90;;;;;;4974751;28;20230;-67
2023/01/19 02:45:21;;;;;;;10.50;8.67;;;2.40;99.90;;;;;;4986591;28;20274;-67
2023/01/19 02:47:51;;;;;;;17.37;9.13;;;2.40;99.90;;;;;;4985463;28;20207;-67
2023/01/19 02:50:36;;;;;;;17.33;9.27;;;2.30;99.90;;;;;;4974767;28;20197;-67
2023/01/19 02:53:29;;;;;;;15.43;9.17;;;2.50;99.90;;;;;;4982354;28;20274;-67
2023/01/19 02:56:40;;;;;;;14.40;8.90;;;2.50;99.90;;;;;;4992057;28;20327;-67
2023/01/19 02:59:22;;;;;;;17.37;9.67;;;2.40;99.90;;;;;;4952138;28;20189;-67
2023/01/19 03:02:09;;;;;;;16.53;9.70;;;2.50;99.90;;;;;;4972068;28;20716;-67
2023/01/19 03:04:47;;;;;;;15.40;9.53;;;2.50;99.90;;;;;;4982842;28;20290;-67
2023/01/19 03:07:18;;;;;;;11.57;8.10;;;2.40;99.90;;;;;;4984804;28;20179;-67
2023/01/19 03:09:51;;;;;;;10.67;9.00;;;2.40;99.90;;;;;;4987951;28;20181;-67
2023/01/19 03:12:45;;;;;;;11.17;7.93;;;2.40;99.90;;;;;;4974699;28;20215;-67
2023/01/19 03:15:40;;;;;;;7.97;7.17;;;2.40;99.90;;;;;;4972921;28;20559;-67
2023/01/19 03:18:09;;;;;;;18.90;10.23;;;2.60;99.90;;;;;;4965180;28;20620;-67
2023/01/19 03:20:36;;;;;;;15.10;8.57;;;2.70;99.90;;;;;;4973676;28;20296;-67
2023/01/19 03:23:07;;;;;;;15.17;8.70;;;2.70;99.90;;;;;;4974271;28;20243;-67
2023/01/19 03:25:36;;;;;;;12.83;9.17;;;2.70;99.90;;;;;;4990829;28;20180;-67
2023/01/19 03:28:03;;;;;;;16.93;9.33;;;2.80;99.90;;;;;;4985336;28;20220;-67
2023/01/19 03:30:33;;;;;;;12.60;8.73;;;2.80;99.90;;;;;;4989643;28;20210;-67
2023/01/19 03:33:03;;;;;;;18.00;11.17;;;2.80;99.90;;;;;;4974053;28;20279;-67
2023/01/19 03:35:34;;;;;;;16.07;8.67;;;2.90;99.90;;;;;;4984310;28;20193;-68
2023/01/19 03:38:05;;;;;;;17.20;8.53;;;2.90;99.90;;;;;;4986127;28;20230;-67
2023/01/19 03:40:32;;;;;;;19.33;8.90;;;2.90;99.90;;;;;;4986008;28;20267;-68
2023/01/19 03:42:59;;;;;;;10.80;8.33;;;2.60;99.90;;;;;;4980934;28;20184;-68
2023/01/19 03:45:26;;;;;;;12.87;8.27;;;2.60;99.90;;;;;;4980668;28;20212;-68
2023/01/19 03:47:53;;;;;;;17.83;7.87;;;2.50;99.90;;;;;;4985399;28;20200;-68
2023/01/19 03:50:28;;;;;;;14.70;9.17;;;2.50;99.90;;;;;;4977618;28;20232;-68
2023/01/19 03:53:09;;;;;;;11.37;8.03;;;2.70;99.90;;;;;;4980323;28;20202;-68
2023/01/19 03:55:38;;;;;;;13.90;8.00;;;2.80;99.90;;;;;;4991328;28;20192;-68
2023/01/19 03:58:04;;;;;;;11.53;7.47;;;2.70;99.90;;;;;;4991892;28;20191;-67
2023/01/19 04:00:29;;;;;;;13.73;8.87;;;2.50;99.90;;;;;;4987711;28;20184;-67
2023/01/19 04:02:55;;;;;;;13.93;9.00;;;2.50;99.90;;;;;;4982499;28;20271;-68
2023/01/19 04:05:21;;;;;;;15.40;8.90;;;2.50;99.90;;;;;;4984737;28;20235;-68
2023/01/19 04:07:48;;;;;;;9.83;7.27;;;2.50;99.90;;;;;;4974809;28;20200;-67
2023/01/19 04:10:16;;;;;;;12.53;8.50;;;2.40;99.90;;;;;;4984012;28;20247;-68
2023/01/19 04:12:41;;;;;;;11.93;7.63;;;2.30;99.90;;;;;;4989784;28;20664;-67
2023/01/19 04:15:07;;;;;;;18.00;9.27;;;2.50;99.90;;;;;;4978179;28;20196;-67
2023/01/19 04:17:33;;;;;;;14.27;9.67;;;2.50;99.90;;;;;;4989996;28;20227;-67
2023/01/19 04:19:59;;;;;;;12.67;9.37;;;2.60;99.90;;;;;;4983725;28;20196;-67
2023/01/19 04:22:25;;;;;;;10.43;7.93;;;2.70;99.90;;;;;;4980104;28;20190;-68
2023/01/19 04:24:51;;;;;;;12.17;9.20;;;2.70;99.90;;;;;;4987021;28;20263;-68
2023/01/19 04:27:17;;;;;;;16.80;8.73;;;2.60;99.90;;;;;;4988422;28;20690;-67
2023/01/19 04:29:43;;;;;;;13.07;8.40;;;2.50;99.90;;;;;;4991659;28;20562;-67
2023/01/19 04:32:09;;;;;;;11.47;7.97;;;2.40;99.90;;;;;;4978864;28;20195;-67
2023/01/19 04:34:34;;;;;;;11.87;8.70;;;2.40;99.90;;;;;;4988027;28;20599;-67
2023/01/19 04:37:00;;;;;;;14.30;8.70;;;2.30;99.90;;;;;;4971880;28;20227;-67
2023/01/19 04:39:26;;;;;;;11.20;8.17;;;2.20;99.90;;;;;;4975197;28;20200;-67
2023/01/19 04:41:52;;;;;;;10.13;7.87;;;2.20;99.90;;;;;;4982107;28;20221;-67
2023/01/19 04:44:18;;;;;;;20.80;8.00;;;2.00;99.90;;;;;;4990905;28;20665;-67
2023/01/19 04:46:44;;;;;;;18.27;10.63;;;2.00;99.90;;;;;;4981630;28;20200;-67
2023/01/19 04:49:09;;;;;;;14.87;8.50;;;2.10;99.90;;;;;;4990585;28;20196;-67
2023/01/19 04:51:36;;;;;;;16.40;8.37;;;2.10;99.90;;;;;;4982896;28;20192;-67
2023/01/19 04:54:02;;;;;;;14.97;7.73;;;1.90;99.90;;;;;;4980288;28;20594;-67
2023/01/19 04:56:28;;;;;;;12.40;9.33;;;2.00;99.90;;;;;;4990684;28;20223;-67
2023/01/19 04:58:54;;;;;;;15.07;9.70;;;2.00;99.90;;;;;;4976831;28;20192;-67
2023/01/19 05:01:20;;;;;;;16.07;9.23;;;2.00;99.90;;;;;;4981838;28;20219;-67
2023/01/19 05:03:45;;;;;;;16.37;9.30;;;2.10;99.90;;;;;;4992653;28;20192;-67
2023/01/19 05:06:11;;;;;;;11.77;9.67;;;2.20;99.90;;;;;;4986637;28;20612;-67
2023/01/19 05:08:37;;;;;;;15.03;10.67;;;2.20;99.90;;;;;;4989553;28;20548;-67
2023/01/19 05:11:03;;;;;;;19.17;9.63;;;2.30;99.90;;;;;;4982944;28;20223;-67
2023/01/19 05:13:29;;;;;;;15.90;10.80;;;2.10;99.90;;;;;;4977074;28;20216;-67
2023/01/19 05:15:54;;;;;;;14.17;9.27;;;2.00;99.90;;;;;;4985585;28;20307;-67
2023/01/19 05:18:20;;;;;;;19.33;9.40;;;2.00;99.90;;;;;;4976059;28;20192;-67
2023/01/19 05:20:46;;;;;;;23.73;10.87;;;1.90;99.90;;;;;;4977044;28;20266;-67
2023/01/19 05:23:12;;;;;;;20.10;10.30;;;1.80;99.90;;;;;;4974529;28;20192;-67
2023/01/19 05:25:37;;;;;;;18.40;10.60;;;1.80;99.90;;;;;;4983029;28;20272;-67
2023/01/19 05:28:03;;;;;;;15.43;10.23;;;1.90;99.90;;;;;;4985361;28;20188;-67
2023/01/19 05:30:29;;;;;;;17.13;10.20;;;1.90;99.90;;;;;;4978898;28;20192;-66
2023/01/19 05:32:54;;;;;;;17.17;10.67;;;1.90;99.90;;;;;;4979931;28;20188;-67
2023/01/19 05:35:20;;;;;;;17.90;12.27;;;1.70;99.90;;;;;;4990077;28;20188;-67
2023/01/19 05:37:46;;;;;;;19.50;10.70;;;1.80;99.90;;;;;;4992508;28;20453;-67
2023/01/19 05:40:12;;;;;;;15.03;11.43;;;1.80;99.90;;;;;;4980904;28;20277;-67
2023/01/19 05:42:37;;;;;;;25.23;11.40;;;1.90;99.90;;;;;;4987542;28;20181;-67
2023/01/19 05:45:04;;;;;;;19.83;12.40;;;2.00;99.90;;;;;;4985469;28;20230;-67
2023/01/19 05:47:30;;;;;;;20.97;12.33;;;2.10;99.90;;;;;;4984511;28;20188;-67
2023/01/19 05:49:56;;;;;;;18.73;12.17;;;2.10;99.90;;;;;;4986356;28;20658;-67
2023/01/19 05:52:23;;;;;;;25.43;10.47;;;2.00;99.90;;;;;;4975130;28;20200;-67
2023/01/19 05:54:50;;;;;;;21.53;13.97;;;1.90;99.90;;;;;;4995722;28;20188;-67
2023/01/19 05:57:16;;;;;;;20.70;12.50;;;1.80;99.90;;;;;;4981023;28;20692;-67
2023/01/19 05:59:41;;;;;;;26.03;11.63;;;1.80;99.90;;;;;;4977662;28;20263;-67
2023/01/19 06:02:07;;;;;;;15.97;11.17;;;1.80;99.90;;;;;;4982503;28;20525;-67
2023/01/19 06:04:33;;;;;;;17.03;11.50;;;1.70;99.90;;;;;;4976770;28;20274;-67
2023/01/19 06:06:59;;;;;;;19.00;11.73;;;1.70;99.90;;;;;;4983380;28;20339;-67
2023/01/19 06:09:25;;;;;;;19.47;10.50;;;1.70;99.90;;;;;;4975300;28;20193;-67
2023/01/19 06:11:53;;;;;;;20.80;10.40;;;1.60;99.90;;;;;;4975392;28;20189;-67
2023/01/19 06:14:18;;;;;;;19.33;11.77;;;1.70;99.90;;;;;;4987985;28;20192;-67
2023/01/19 06:16:44;;;;;;;17.70;11.07;;;1.80;99.90;;;;;;4976898;28;20220;-67
2023/01/19 06:19:10;;;;;;;18.47;11.43;;;1.70;99.90;;;;;;4975346;28;20193;-67
2023/01/19 06:21:35;;;;;;;17.57;11.50;;;1.70;99.90;;;;;;4976372;28;20219;-67
2023/01/19 06:24:02;;;;;;;22.90;11.93;;;1.90;99.90;;;;;;4966630;28;20192;-66
2023/01/19 06:26:28;;;;;;;19.33;9.50;;;1.80;99.90;;;;;;4976063;28;20192;-67
2023/01/19 06:28:54;;;;;;;16.03;9.87;;;1.60;99.90;;;;;;4983702;28;20258;-67
2023/01/19 06:31:19;;;;;;;15.80;10.83;;;1.60;99.90;;;;;;4979954;28;20189;-67
2023/01/19 06:33:45;;;;;;;18.37;10.40;;;1.70;99.90;;;;;;4974780;28;20240;-67
2023/01/19 06:36:11;;;;;;;23.93;13.30;;;1.70;99.90;;;;;;4990453;28;20624;-68
2023/01/19 06:38:37;;;;;;;22.17;11.27;;;1.80;99.90;;;;;;4988686;28;20224;-68
2023/01/19 06:41:03;;;;;;;18.23;11.53;;;1.80;99.90;;;;;;4993528;28;20752;-66
2023/01/19 06:43:30;;;;;;;19.47;10.43;;;1.90;99.90;;;;;;4975415;28;20232;-68
2023/01/19 06:45:56;;;;;;;20.27;12.13;;;1.90;99.90;;;;;;4977198;28;20192;-68
2023/01/19 06:48:22;;;;;;;15.70;11.47;;;2.00;99.90;;;;;;4984200;28;20203;-68
2023/01/19 06:50:48;;;;;;;26.00;12.67;;;2.10;99.90;;;;;;4977049;28;20181;-67
2023/01/19 06:53:15;;;;;;;15.10;10.73;;;2.10;99.90;;;;;;4982519;28;20203;-68
2023/01/19 06:55:42;;;;;;;22.77;11.00;;;2.10;99.90;;;;;;4974874;28;20558;-68
2023/01/19 06:58:08;;;;;;;17.50;12.53;;;2.10;99.90;;;;;;4984230;28;20193;-68
2023/01/19 07:00:34;;;;;;;18.23;9.73;;;2.00;99.90;;;;;;4978448;28;20192;-68
2023/01/19 07:03:00;;;;;;;17.67;9.93;;;2.00;99.90;;;;;;4973031;28;20275;-68
2023/01/19 07:05:25;;;;;;;21.77;11.93;;;2.10;99.90;;;;;;4968337;28;20305;-67
2023/01/19 07:07:55;;;;;;;18.67;10.53;;;2.10;99.90;;;;;;4976731;28;20234;-68
2023/01/19 07:10:22;;;;;;;20.13;11.77;;;2.10;99.90;;;;;;4976980;28;20199;-68
2023/01/19 07:12:48;;;;;;;20.90;9.90;;;2.00;99.90;;;;;;4986251;28;20192;-68
2023/01/19 07:15:15;;;;;;;22.70;11.40;;;2.00;99.90;;;;;;4980441;28;20193;-68
2023/01/19 07:17:41;;;;;;;29.83;10.67;;;2.00;99.90;;;;;;4978177;28;20208;-68
2023/01/19 07:20:13;;;;;;;14.43;10.37;;;2.10;99.90;;;;;;4972644;28;20247;-68
2023/01/19 07:22:40;;;;;;;18.53;10.83;;;2.10;99.90;;;;;;4974024;28;20181;-67
2023/01/19 07:25:06;;;;;;;17.83;10.60;;;2.00;99.90;;;;;;4987250;28;20572;-68
2023/01/19 07:27:32;;;;;;;23.57;11.00;;;2.00;99.90;;;;;;4984101;28;20247;-67
2023/01/19 07:29:59;;;;;;;16.00;10.23;;;2.10;99.90;;;;;;4982558;28;20193;-67
2023/01/19 07:32:26;;;;;;;16.97;11.83;;;2.10;99.90;;;;;;4978843;28;20287;-67
2023/01/19 07:34:51;;;;;;;19.97;11.00;;;2.20;99.90;;;;;;4973797;28;20561;-67
2023/01/19 07:37:17;;;;;;;13.90;10.50;;;2.00;99.90;;;;;;4982122;28;20220;-67
2023/01/19 07:39:43;;;;;;;26.70;13.27;;;2.00;99.90;;;;;;4980360;28;20695;-67
2023/01/19 07:42:08;;;;;;;20.80;12.47;;;2.10;99.90;;;;;;4977257;28;20193;-68
2023/01/19 07:44:34;;;;;;;16.03;9.83;;;2.10;99.90;;;;;;4979415;28;20552;-67
2023/01/19 07:47:00;;;;;;;14.50;9.90;;;2.20;99.90;;;;;;4956874;28;20207;-67
2023/01/19 07:49:26;;;;;;;23.87;11.83;;;2.00;99.90;;;;;;4976336;28;20284;-67
2023/01/19 07:51:51;;;;;;;19.00;9.97;;;1.90;99.90;;;;;;4987187;28;20298;-68
2023/01/19 07:54:17;;;;;;;21.27;9.97;;;2.00;99.90;;;;;;4977719;28;20193;-68
2023/01/19 07:56:43;;;;;;;23.83;13.50;;;2.10;99.90;;;;;;4973515;28;20620;-67
2023/01/19 07:59:09;;;;;;;25.43;12.50;;;2.20;99.90;;;;;;4977557;28;20548;-67
2023/01/19 08:01:35;;;;;;;23.47;10.60;;;2.10;99.90;;;;;;4976398;28;20192;-67
2023/01/19 08:04:01;;;;;;;14.77;9.33;;;2.20;99.90;;;;;;4974860;28;20199;-67
2023/01/19 08:06:33;;;;;;;16.03;9.47;;;2.30;99.90;;;;;;4974670;28;20773;-67
2023/01/19 08:08:59;;;;;;;19.87;11.47;;;2.30;99.90;;;;;;4974669;28;20180;-67
2023/01/19 08:11:25;;;;;;;24.97;10.83;;;2.40;99.90;;;;;;4977194;28;20204;-67
2023/01/19 08:13:51;;;;;;;15.93;11.03;;;2.30;99.90;;;;;;4988179;28;20184;-67
2023/01/19 08:16:17;;;;;;;19.60;11.10;;;2.40;99.90;;;;;;4981339;28;20669;-67
2023/01/19 08:18:42;;;;;;;25.20;10.47;;;2.30;99.90;;;;;;4972373;28;20615;-68
2023/01/19 08:21:08;;;;;;;22.57;10.77;;;2.20;99.90;;;;;;4977210;28;20188;-67
2023/01/19 08:23:34;;;;;;;21.07;11.70;;;2.20;99.90;;;;;;4975502;28;20203;-67
2023/01/19 08:26:00;;;;;;;15.87;9.77;;;2.30;99.90;;;;;;4990563;28;20666;-68
2023/01/19 08:28:26;;;;;;;11.17;8.47;;;2.40;99.90;;;;;;4980182;28;20208;-67
2023/01/19 08:30:54;;;;;;;19.87;11.23;;;2.40;99.90;;;;;;4980454;28;20673;-67
2023/01/19 08:33:21;;;;;;;17.07;10.97;;;2.40;99.90;;;;;;4991006;28;20189;-67
2023/01/19 08:35:50;;;;;;;21.37;12.73;;;2.60;99.90;;;;;;4973858;28;20212;-68
2023/01/19 08:38:16;;;;;;;17.80;11.53;;;2.50;99.90;;;;;;4978279;28;20247;-67
2023/01/19 08:40:42;;;;;;;25.50;11.50;;;2.60;99.90;;;;;;4977251;28;20181;-66
2023/01/19 08:43:13;;;;;;;18.77;10.90;;;2.60;99.90;;;;;;4977204;28;20204;-67
2023/01/19 08:45:46;;;;;;;23.03;12.00;;;2.60;99.90;;;;;;4981219;28;20263;-67
2023/01/19 08:48:13;;;;;;;25.43;12.27;;;2.60;99.90;;;;;;4994157;28;20188;-67
2023/01/19 08:50:39;;;;;;;14.23;10.53;;;2.80;99.90;;;;;;4985663;28;20177;-67
2023/01/19 08:53:06;;;;;;;23.30;12.97;;;2.80;99.90;;;;;;4976909;28;20212;-66
2023/01/19 08:55:35;;;;;;;18.50;10.43;;;2.80;99.90;;;;;;4977301;28;20272;-68
2023/01/19 08:58:03;;;;;;;23.67;13.00;;;2.70;99.90;;;;;;4976661;28;20224;-67
2023/01/19 09:00:33;;;;;;;18.10;11.87;;;2.70;99.90;;;;;;4976870;28;20189;-67
2023/01/19 09:03:01;;;;;;;22.00;11.00;;;2.80;99.90;;;;;;4983035;28;20199;-67
2023/01/19 09:05:28;;;;;;;22.13;12.20;;;3.10;99.90;;;;;;4976692;28;20201;-67
2023/01/19 09:07:53;;;;;;;17.50;12.77;;;3.30;99.90;;;;;;4976950;28;20189;-67
2023/01/19 09:10:19;;;;;;;22.60;12.27;;;3.60;99.90;;;;;;4975314;28;20590;-67
2023/01/19 09:12:45;;;;;;;17.07;9.87;;;3.60;99.90;;;;;;4975973;28;20188;-68
2023/01/19 09:15:12;;;;;;;20.83;11.23;;;3.60;99.90;;;;;;4976583;28;20220;-68
2023/01/19 09:17:40;;;;;;;22.23;11.30;;;3.80;99.90;;;;;;4977069;28;20216;-67
2023/01/19 09:20:06;;;;;;;24.10;11.73;;;3.80;99.90;;;;;;4975246;28;20555;-68
2023/01/19 09:22:32;;;;;;;19.27;10.40;;;3.70;99.90;;;;;;4979144;28;20216;-68
2023/01/19 09:24:58;;;;;;;27.03;12.37;;;3.90;99.90;;;;;;4975349;28;20192;-68
2023/01/19 09:27:23;;;;;;;25.23;12.00;;;4.00;99.90;;;;;;4989437;28;20203;-67
2023/01/19 09:29:52;;;;;;;28.27;12.33;;;3.90;99.90;;;;;;4976372;28;20642;-67
2023/01/19 09:32:19;;;;;;;25.27;14.10;;;3.80;99.90;;;;;;4980544;28;20188;-67
2023/01/19 09:34:45;;;;;;;24.80;13.13;;;3.80;99.90;;;;;;4990644;28;20247;-67
2023/01/19 09:37:11;;;;;;;24.83;10.60;;;3.80;99.90;;;;;;4986456;28;20602;-67
2023/01/19 09:39:36;;;;;;;26.93;13.37;;;3.70;99.90;;;;;;4975401;28;20205;-67
2023/01/19 09:42:16;;;;;;;21.83;11.10;;;3.60;99.90;;;;;;4976675;28;20188;-67
2023/01/19 09:44:44;;;;;;;24.57;13.20;;;3.50;99.90;;;;;;4980682;28;20564;-67
2023/01/19 09:47:19;;;;;;;29.67;12.63;;;3.60;99.90;;;;;;4979041;28;20555;-68
2023/01/19 09:49:51;;;;;;;30.87;13.10;;;3.70;99.90;;;;;;4979742;28;20177;-67
2023/01/19 09:52:17;;;;;;;33.90;13.10;;;3.90;99.90;;;;;;4974963;28;20731;-67
2023/01/19 09:54:54;;;;;;;23.23;11.80;;;3.80;99.90;;;;;;4981645;28;20185;-68
2023/01/19 09:57:22;;;;;;;23.20;12.60;;;3.60;99.90;;;;;;4974928;28;20208;-67
2023/01/19 09:59:50;;;;;;;19.10;12.13;;;3.70;99.90;;;;;;4975746;28;20522;-67
2023/01/19 10:02:43;;;;;;;19.87;10.63;;;3.70;99.90;;;;;;4982124;28;20595;-67
2023/01/19 10:05:32;;;;;;;29.10;11.67;;;3.70;99.90;;;;;;4975660;28;20189;-68
2023/01/19 10:08:08;;;;;;;27.87;9.90;;;3.80;99.90;;;;;;4979351;28;20206;-68
2023/01/19 10:10:36;;;;;;;26.00;10.73;;;3.90;99.90;;;;;;4993103;28;20187;-67
2023/01/19 10:13:23;;;;;;;23.23;10.40;;;3.80;99.90;;;;;;4986443;28;20212;-67
2023/01/19 10:16:38;;;;;;;29.00;11.87;;;3.90;99.90;;;;;;4987043;28;20183;-67
2023/01/19 10:19:16;;;;;;;26.00;11.60;;;3.80;99.90;;;;;;4952712;28;20228;-67
2023/01/19 10:21:45;;;;;;;23.10;10.23;;;3.80;99.90;;;;;;4974040;28;20539;-67
2023/01/19 10:24:24;;;;;;;26.60;12.90;;;3.80;99.90;;;;;;4983252;28;20199;-69
2023/01/19 10:26:52;;;;;;;30.77;11.47;;;3.90;99.90;;;;;;4981925;28;20646;-67
2023/01/19 10:29:21;;;;;;;26.43;12.33;;;4.10;99.90;;;;;;4977276;28;20641;-67
2023/01/19 10:31:48;;;;;;;27.93;10.73;;;4.10;99.90;;;;;;4976263;28;20224;-67
2023/01/19 10:34:17;;;;;;;19.13;10.93;;;4.20;99.90;;;;;;4946765;28;20252;-68
2023/01/19 10:36:45;;;;;;;20.70;8.80;;;4.00;99.90;;;;;;4992197;28;20219;-68
2023/01/19 10:39:16;;;;;;;17.77;10.47;;;4.10;99.90;;;;;;4981696;28;20188;-68
2023/01/19 10:41:52;;;;;;;20.63;10.27;;;4.10;99.90;;;;;;4979917;28;20177;-67
2023/01/19 10:44:27;;;;;;;25.97;11.80;;;4.30;99.90;;;;;;4978614;28;20184;-67
2023/01/19 10:46:55;;;;;;;22.07;9.97;;;4.40;99.90;;;;;;4975131;28;20275;-67
2023/01/19 10:49:25;;;;;;;22.73;8.57;;;4.40;99.90;;;;;;4977635;28;20196;-67
2023/01/19 10:51:52;;;;;;;25.70;10.60;;;4.50;99.90;;;;;;4974819;28;20196;-68
2023/01/19 10:54:20;;;;;;;21.33;10.33;;;4.70;99.90;;;;;;4982250;28;20184;-67
2023/01/19 10:56:55;;;;;;;15.13;9.40;;;4.80;99.90;;;;;;4974436;28;20209;-65
2023/01/19 10:59:31;;;;;;;22.23;9.47;;;4.90;99.90;;;;;;4974561;28;20227;-67
2023/01/19 11:02:13;;;;;;;25.90;11.40;;;4.90;99.90;;;;;;4974605;28;20619;-66
2023/01/19 11:04:40;;;;;;;19.83;9.57;;;4.80;99.90;;;;;;4978096;28;20188;-67
2023/01/19 11:07:21;;;;;;;25.33;10.97;;;4.50;99.90;;;;;;4973035;28;20288;-67
2023/01/19 11:09:48;;;;;;;17.87;10.00;;;4.40;99.90;;;;;;4975621;28;20196;-67
2023/01/19 11:12:22;;;;;;;22.37;10.47;;;4.60;99.90;;;;;;4977786;28;20180;-66
2023/01/19 11:14:49;;;;;;;23.07;9.80;;;4.80;99.90;;;;;;4976060;28;20235;-69
2023/01/19 11:17:22;;;;;;;21.83;10.73;;;4.70;99.90;;;;;;4973294;28;20224;-67
2023/01/19 11:20:01;;;;;;;22.30;9.97;;;4.50;99.90;;;;;;4974456;28;20180;-65
2023/01/19 11:22:32;;;;;;;26.47;11.83;;;4.40;99.90;;;;;;4982133;28;20196;-66
2023/01/19 11:25:00;;;;;;;18.63;9.37;;;4.50;99.90;;;;;;4982738;28;20184;-67
2023/01/19 11:27:28;;;;;;;22.90;10.60;;;4.60;99.90;;;;;;4975770;28;20271;-66
2023/01/19 11:30:15;;;;;;;23.30;10.33;;;4.60;99.90;;;;;;4974466;28;20196;-66
2023/01/19 11:32:41;;;;;;;27.33;10.77;;;4.70;99.90;;;;;;4982057;28;20180;-66
2023/01/19 11:35:35;;;;;;;23.00;10.93;;;4.90;99.90;;;;;;4986652;28;20193;-67
2023/01/19 11:38:22;;;;;;;20.63;9.50;;;5.00;99.90;;;;;;4987608;28;20255;-67
2023/01/19 11:40:55;;;;;;;17.70;9.47;;;5.10;99.90;;;;;;4973702;28;20185;-66
2023/01/19 11:43:24;;;;;;;18.67;10.80;;;5.10;99.90;;;;;;4973808;28;20191;-65
2023/01/19 11:45:50;;;;;;;19.10;8.97;;;5.20;99.90;;;;;;4973965;28;20189;-65
2023/01/19 11:48:45;;;;;;;19.37;9.40;;;4.70;99.90;;;;;;4973812;28;20185;-65
2023/01/19 11:51:18;;;;;;;23.30;9.40;;;4.60;99.90;;;;;;4970560;28;20204;-65
2023/01/19 11:53:50;;;;;;;15.93;8.03;;;4.60;99.90;;;;;;4974259;28;20196;-65
2023/01/19 11:56:17;;;;;;;28.53;10.40;;;4.80;99.90;;;;;;4967448;28;20219;-65
2023/01/19 11:58:47;;;;;;;27.63;10.63;;;5.00;99.90;;;;;;4990235;28;20211;-65
2023/01/19 12:01:15;;;;;;;20.73;11.37;;;4.90;99.90;;;;;;4979956;28;20195;-65
2023/01/19 12:04:17;;;;;;;20.70;10.10;;;4.70;99.90;;;;;;4986380;28;20195;-65
2023/01/19 12:06:48;;;;;;;19.67;11.53;;;4.80;99.90;;;;;;4987027;28;20663;-65
2023/01/19 12:09:49;;;;;;;25.10;11.20;;;5.00;99.90;;;;;;4991061;28;20227;-65
2023/01/19 12:12:34;;;;;;;18.97;10.57;;;5.00;99.90;;;;;;4987017;28;20192;-65
2023/01/19 12:15:03;;;;;;;18.03;10.70;;;4.80;99.90;;;;;;5006102;28;20664;-66
2023/01/19 12:17:48;;;;;;;20.60;12.63;;;4.70;99.90;;;;;;4987549;28;20747;-66
2023/01/19 12:20:43;;;;;;;26.40;12.23;;;4.80;99.90;;;;;;4991154;28;20262;-66
2023/01/19 12:23:24;;;;;;;22.83;10.50;;;4.80;99.90;;;;;;4983433;28;20677;-67
2023/01/19 12:26:23;;;;;;;21.37;10.50;;;4.80;99.90;;;;;;4982812;28;20210;-66
2023/01/19 12:28:51;;;;;;;17.90;10.87;;;5.00;99.90;;;;;;4990993;28;20525;-64
2023/01/19 12:31:20;;;;;;;24.50;12.47;;;5.10;99.90;;;;;;4995181;28;20192;-65
2023/01/19 12:33:47;;;;;;;24.07;11.60;;;5.20;99.90;;;;;;4977509;28;20208;-66
2023/01/19 12:36:15;;;;;;;18.77;9.90;;;5.50;99.90;;;;;;4983531;28;20246;-65
2023/01/19 12:38:47;;;;;;;25.93;10.93;;;5.60;99.90;;;;;;4980712;28;20192;-67
2023/01/19 12:41:24;;;;;;;20.23;10.60;;;5.90;99.90;;;;;;4977227;28;20689;-66
2023/01/19 12:44:10;;;;;;;17.37;9.83;;;6.10;99.90;;;;;;4978040;28;20235;-66
2023/01/19 12:46:48;;;;;;;21.40;10.17;;;6.10;99.90;;;;;;4969925;28;20565;-66
2023/01/19 12:49:26;;;;;;;21.80;10.07;;;5.90;99.90;;;;;;4988227;28;20279;-66
2023/01/19 12:52:27;;;;;;;19.47;10.27;;;5.80;99.90;;;;;;4976840;28;20208;-66
2023/01/19 12:54:58;;;;;;;15.43;7.33;;;6.00;99.90;;;;;;4977516;28;20200;-66
2023/01/19 12:57:32;;;;;;;18.73;10.53;;;6.10;99.90;;;;;;4981405;28;20239;-66
2023/01/19 13:00:09;;;;;;;18.03;9.50;;;6.10;99.90;;;;;;4976851;28;20554;-66
2023/01/19 13:02:46;;;;;;;17.33;10.47;;;6.30;99.90;;;;;;4977742;28;20263;-66